SXS8GT LTAI-EDLW
Flight info
| Callsign | SXS8GT |
|---|---|
| Flight time | N/A |
| Altitude | 36000 |
| Route | EKNUD UQ26 TUDBU DCT NAVOD DCT PANZU DCT ELDET DCT BACAM DCT SODGO DCT INVED DCT BEGLA DCT DITIS DCT RAPET T170 RUNEN DCT FULNO/N0451F300 T842 IDEWE/N0413F240 T842 ADEMI ADEMI2A |
| Aircraft | B38M/M-SDE1FGHILORVWXY/HB1 |
Departure
| Time | 2026-05-05 23:57 |
|---|---|
| Airport | Antalya International Airport (LTAI) |
Arrival
| Time | N/A |
|---|---|
| Airport | Dortmund Airport (EDLW) |
| Time | Latitude | Longitude | Altitude | Speed | Heading |
|---|---|---|---|---|---|
| 2026-05-05 23:28 | 36.89737 | 30.80032 | 206 ft | 0 kts | 61° |
| 2026-05-05 23:35 | 36.89737 | 30.80031 | 207 ft | 0 kts | 61° |
| 2026-05-05 23:41 | 36.89736 | 30.80031 | 186 ft | 0 kts | 61° |
| 2026-05-05 23:44 | 36.89732 | 30.80021 | 195 ft | 3 kts | 62° |
| 2026-05-05 23:44 | 36.89723 | 30.79999 | 202 ft | 3 kts | 64° |
| 2026-05-05 23:44 | 36.89714 | 30.79976 | 207 ft | 3 kts | 65° |
| 2026-05-05 23:44 | 36.89706 | 30.79953 | 200 ft | 3 kts | 63° |
| 2026-05-05 23:45 | 36.89696 | 30.79931 | 209 ft | 3 kts | 53° |
| 2026-05-05 23:45 | 36.89685 | 30.79916 | 206 ft | 3 kts | 39° |
| 2026-05-05 23:45 | 36.89669 | 30.79905 | 204 ft | 3 kts | 6° |
| 2026-05-05 23:45 | 36.89653 | 30.79903 | 205 ft | 3 kts | 37° |
| 2026-05-05 23:46 | 36.89641 | 30.79888 | 201 ft | 3 kts | 55° |
| 2026-05-05 23:46 | 36.89633 | 30.79867 | 203 ft | 3 kts | 80° |
| 2026-05-05 23:46 | 36.89631 | 30.79842 | 203 ft | 3 kts | 91° |
| 2026-05-05 23:46 | 36.89631 | 30.79839 | 203 ft | 0 kts | 91° |
| 2026-05-05 23:47 | 36.89631 | 30.79838 | 203 ft | 0 kts | 91° |
| 2026-05-05 23:49 | 36.89631 | 30.79841 | 203 ft | 1 kts | 93° |
| 2026-05-05 23:49 | 36.89630 | 30.79856 | 199 ft | 3 kts | 95° |
| 2026-05-05 23:49 | 36.89627 | 30.79902 | 200 ft | 8 kts | 96° |
| 2026-05-05 23:49 | 36.89620 | 30.79981 | 207 ft | 10 kts | 96° |
| 2026-05-05 23:50 | 36.89611 | 30.80074 | 194 ft | 11 kts | 97° |
| 2026-05-05 23:50 | 36.89601 | 30.80179 | 194 ft | 13 kts | 97° |
| 2026-05-05 23:50 | 36.89591 | 30.80296 | 207 ft | 14 kts | 96° |
| 2026-05-05 23:50 | 36.89579 | 30.80426 | 204 ft | 16 kts | 96° |
| 2026-05-05 23:51 | 36.89569 | 30.80544 | 194 ft | 12 kts | 96° |
| 2026-05-05 23:51 | 36.89561 | 30.80632 | 198 ft | 9 kts | 96° |
| 2026-05-05 23:51 | 36.89515 | 30.80682 | 197 ft | 10 kts | 175° |
| 2026-05-05 23:51 | 36.89441 | 30.80674 | 196 ft | 11 kts | 186° |
| 2026-05-05 23:52 | 36.89357 | 30.80662 | 203 ft | 13 kts | 186° |
| 2026-05-05 23:52 | 36.89263 | 30.80649 | 196 ft | 14 kts | 186° |
| 2026-05-05 23:52 | 36.89161 | 30.80635 | 206 ft | 16 kts | 187° |
| 2026-05-05 23:52 | 36.89049 | 30.80619 | 194 ft | 17 kts | 186° |
| 2026-05-05 23:53 | 36.88930 | 30.80603 | 202 ft | 18 kts | 186° |
| 2026-05-05 23:53 | 36.88803 | 30.80585 | 206 ft | 19 kts | 186° |
| 2026-05-05 23:53 | 36.88670 | 30.80567 | 201 ft | 20 kts | 186° |
| 2026-05-05 23:53 | 36.88526 | 30.80547 | 203 ft | 21 kts | 186° |
| 2026-05-05 23:54 | 36.88376 | 30.80527 | 195 ft | 21 kts | 186° |
| 2026-05-05 23:54 | 36.88241 | 30.80509 | 195 ft | 17 kts | 186° |
| 2026-05-05 23:54 | 36.88136 | 30.80494 | 209 ft | 12 kts | 186° |
| 2026-05-05 23:54 | 36.88070 | 30.80505 | 201 ft | 10 kts | 138° |
| 2026-05-05 23:55 | 36.88055 | 30.80598 | 195 ft | 13 kts | 85° |
| 2026-05-05 23:55 | 36.88102 | 30.80698 | 202 ft | 14 kts | 52° |
| 2026-05-05 23:55 | 36.88165 | 30.80736 | 194 ft | 8 kts | 8° |
| 2026-05-05 23:55 | 36.88183 | 30.80739 | 207 ft | 0 kts | 6° |
| 2026-05-05 23:56 | 36.88307 | 30.80754 | 199 ft | 53 kts | 5° |
| 2026-05-05 23:56 | 36.88921 | 30.80838 | 204 ft | 122 kts | 6° |
| 2026-05-05 23:56 | 36.89952 | 30.80918 | 313 ft | 167 kts | 2° |
| 2026-05-05 23:57 | 36.91168 | 30.81032 | 949 ft | 181 kts | 2° |
| 2026-05-05 23:57 | 36.92425 | 30.81389 | 1751 ft | 189 kts | 19° |
| 2026-05-05 23:57 | 36.93652 | 30.82065 | 2545 ft | 200 kts | 20° |
| 2026-05-05 23:57 | 36.94957 | 30.82788 | 3263 ft | 208 kts | 20° |
| 2026-05-05 23:58 | 36.96268 | 30.83506 | 4312 ft | 206 kts | 21° |
| 2026-05-05 23:58 | 36.96472 | 30.83617 | 4466 ft | 206 kts | 21° |
| 2026-05-05 23:58 | 36.97597 | 30.84228 | 5267 ft | 207 kts | 21° |
| 2026-05-05 23:58 | 36.98513 | 30.84724 | 5913 ft | 209 kts | 21° |
| 2026-05-05 23:59 | 36.99194 | 30.85067 | 6274 ft | 216 kts | 20° |
| 2026-05-05 23:59 | 37.00659 | 30.85776 | 6811 ft | 235 kts | 20° |
| 2026-05-05 23:59 | 37.02207 | 30.86529 | 7632 ft | 240 kts | 20° |
| 2026-05-05 23:59 | 37.03789 | 30.87300 | 8256 ft | 256 kts | 20° |
| 2026-05-06 00:00 | 37.05495 | 30.88132 | 8934 ft | 267 kts | 20° |
| 2026-05-06 00:00 | 37.07274 | 30.88744 | 9937 ft | 267 kts | 3° |
| 2026-05-06 00:00 | 37.09155 | 30.88490 | 10538 ft | 281 kts | 351° |
| 2026-05-06 00:00 | 37.11151 | 30.88027 | 10913 ft | 302 kts | 351° |
| 2026-05-06 00:01 | 37.13275 | 30.87519 | 11358 ft | 318 kts | 350° |
| 2026-05-06 00:01 | 37.15483 | 30.86978 | 11948 ft | 327 kts | 350° |
| 2026-05-06 00:01 | 37.17721 | 30.86422 | 12775 ft | 329 kts | 350° |
| 2026-05-06 00:01 | 37.19955 | 30.85863 | 13530 ft | 334 kts | 349° |
| 2026-05-06 00:02 | 37.22245 | 30.85289 | 14242 ft | 337 kts | 349° |
| 2026-05-06 00:02 | 37.24542 | 30.84712 | 14991 ft | 337 kts | 349° |
| 2026-05-06 00:02 | 37.26842 | 30.84133 | 15707 ft | 338 kts | 349° |
| 2026-05-06 00:02 | 37.29151 | 30.83553 | 16484 ft | 339 kts | 349° |
| 2026-05-06 00:03 | 37.31470 | 30.82969 | 17166 ft | 341 kts | 349° |
| 2026-05-06 00:03 | 37.33794 | 30.82381 | 17926 ft | 341 kts | 349° |
| 2026-05-06 00:03 | 37.36130 | 30.81790 | 18535 ft | 343 kts | 349° |
| 2026-05-06 00:03 | 37.38471 | 30.81196 | 19113 ft | 344 kts | 349° |
| 2026-05-06 00:04 | 37.40828 | 30.80598 | 19660 ft | 346 kts | 348° |
| 2026-05-06 00:04 | 37.43184 | 30.80239 | 20208 ft | 348 kts | 360° |
| 2026-05-06 00:04 | 37.45606 | 30.80326 | 20756 ft | 350 kts | 359° |
| 2026-05-06 00:04 | 37.48047 | 30.80392 | 21302 ft | 351 kts | 359° |
| 2026-05-06 00:05 | 37.52970 | 30.80596 | 22313 ft | 356 kts | 0° |
| 2026-05-06 00:05 | 37.55448 | 30.80705 | 22833 ft | 358 kts | 0° |
| 2026-05-06 00:05 | 37.57952 | 30.80816 | 23330 ft | 361 kts | 360° |
| 2026-05-06 00:06 | 37.60432 | 30.80927 | 23792 ft | 362 kts | 0° |
| 2026-05-06 00:06 | 37.62957 | 30.81039 | 24252 ft | 364 kts | 0° |
| 2026-05-06 00:06 | 37.65497 | 30.81153 | 24674 ft | 367 kts | 0° |
| 2026-05-06 00:06 | 37.68057 | 30.81268 | 25091 ft | 369 kts | 0° |
| 2026-05-06 00:07 | 37.70630 | 30.81383 | 25493 ft | 371 kts | 0° |
| 2026-05-06 00:07 | 37.73214 | 30.81499 | 25863 ft | 373 kts | 0° |
| 2026-05-06 00:07 | 37.75820 | 30.81616 | 26250 ft | 375 kts | 0° |
| 2026-05-06 00:07 | 37.78430 | 30.81680 | 26623 ft | 376 kts | 358° |
| 2026-05-06 00:08 | 37.81052 | 30.81610 | 26995 ft | 378 kts | 358° |
| 2026-05-06 00:08 | 37.83653 | 30.81553 | 27349 ft | 380 kts | 358° |
| 2026-05-06 00:08 | 37.86305 | 30.81502 | 27732 ft | 382 kts | 358° |
| 2026-05-06 00:08 | 37.88969 | 30.81453 | 28084 ft | 384 kts | 358° |
| 2026-05-06 00:09 | 37.91645 | 30.81404 | 28454 ft | 386 kts | 358° |
| 2026-05-06 00:09 | 37.94337 | 30.81356 | 28798 ft | 387 kts | 358° |
| 2026-05-06 00:09 | 37.97035 | 30.81307 | 29139 ft | 389 kts | 358° |
| 2026-05-06 00:09 | 37.99748 | 30.81259 | 29472 ft | 391 kts | 358° |
| 2026-05-06 00:10 | 38.02474 | 30.81210 | 29796 ft | 393 kts | 358° |
| 2026-05-06 00:10 | 38.05172 | 30.81161 | 30101 ft | 394 kts | 358° |
| 2026-05-06 00:10 | 38.07922 | 30.81111 | 30370 ft | 396 kts | 358° |
| 2026-05-06 00:10 | 38.10680 | 30.81061 | 30668 ft | 397 kts | 358° |
| 2026-05-06 00:11 | 38.13435 | 30.80910 | 31013 ft | 396 kts | 352° |
| 2026-05-06 00:11 | 38.16159 | 30.80372 | 31333 ft | 396 kts | 352° |
| 2026-05-06 00:11 | 38.18892 | 30.79893 | 31617 ft | 397 kts | 352° |
| 2026-05-06 00:11 | 38.21637 | 30.79430 | 31904 ft | 398 kts | 352° |
| 2026-05-06 00:12 | 38.24380 | 30.78978 | 32198 ft | 398 kts | 353° |
| 2026-05-06 00:12 | 38.27093 | 30.78536 | 32489 ft | 398 kts | 353° |
| 2026-05-06 00:12 | 38.29840 | 30.78090 | 32773 ft | 399 kts | 353° |
| 2026-05-06 00:12 | 38.32594 | 30.77642 | 33062 ft | 400 kts | 353° |
| 2026-05-06 00:13 | 38.35357 | 30.77193 | 33355 ft | 400 kts | 353° |
| 2026-05-06 00:13 | 38.38113 | 30.76745 | 33685 ft | 399 kts | 353° |
| 2026-05-06 00:13 | 38.40869 | 30.76297 | 33950 ft | 400 kts | 353° |
| 2026-05-06 00:13 | 38.43629 | 30.75846 | 34187 ft | 400 kts | 353° |
| 2026-05-06 00:14 | 38.46398 | 30.75395 | 34372 ft | 402 kts | 352° |
| 2026-05-06 00:14 | 38.49175 | 30.74942 | 34559 ft | 403 kts | 352° |
| 2026-05-06 00:14 | 38.51960 | 30.74488 | 34750 ft | 404 kts | 352° |
| 2026-05-06 00:14 | 38.54712 | 30.74038 | 34933 ft | 405 kts | 352° |
| 2026-05-06 00:15 | 38.57514 | 30.73580 | 35130 ft | 406 kts | 352° |
| 2026-05-06 00:15 | 38.60321 | 30.73120 | 35306 ft | 408 kts | 352° |
| 2026-05-06 00:15 | 38.63142 | 30.72658 | 35480 ft | 409 kts | 352° |
| 2026-05-06 00:15 | 38.65971 | 30.72195 | 35665 ft | 410 kts | 352° |
| 2026-05-06 00:16 | 38.68807 | 30.71729 | 35836 ft | 411 kts | 352° |
| 2026-05-06 00:16 | 38.71649 | 30.71263 | 35991 ft | 412 kts | 352° |
| 2026-05-06 00:16 | 38.74501 | 30.70795 | 36047 ft | 414 kts | 352° |
| 2026-05-06 00:17 | 38.80166 | 30.69863 | 36031 ft | 412 kts | 352° |
| 2026-05-06 00:17 | 38.85773 | 30.68469 | 36008 ft | 411 kts | 336° |
| 2026-05-06 00:18 | 38.90918 | 30.65243 | 36013 ft | 413 kts | 335° |
| 2026-05-06 00:18 | 38.96062 | 30.61954 | 36042 ft | 413 kts | 334° |
| 2026-05-06 00:19 | 39.01159 | 30.58641 | 36046 ft | 414 kts | 334° |
| 2026-05-06 00:19 | 39.06293 | 30.55291 | 36039 ft | 414 kts | 334° |
| 2026-05-06 00:20 | 39.11426 | 30.51935 | 36038 ft | 414 kts | 334° |
| 2026-05-06 00:20 | 39.16561 | 30.48573 | 36041 ft | 414 kts | 334° |
| 2026-05-06 00:21 | 39.21657 | 30.45230 | 36043 ft | 414 kts | 334° |
| 2026-05-06 00:21 | 39.26796 | 30.41853 | 36047 ft | 415 kts | 334° |
| 2026-05-06 00:22 | 39.31938 | 30.38469 | 36033 ft | 415 kts | 334° |
| 2026-05-06 00:22 | 39.37092 | 30.35072 | 36046 ft | 416 kts | 334° |
| 2026-05-06 00:23 | 39.42247 | 30.31668 | 36052 ft | 416 kts | 334° |
| 2026-05-06 00:23 | 39.47366 | 30.28283 | 36054 ft | 417 kts | 334° |
| 2026-05-06 00:24 | 39.52666 | 30.25242 | 36071 ft | 417 kts | 339° |
| 2026-05-06 00:24 | 39.58045 | 30.22402 | 36064 ft | 417 kts | 338° |
| 2026-05-06 00:25 | 39.63407 | 30.19526 | 36065 ft | 417 kts | 338° |
| 2026-05-06 00:25 | 39.68735 | 30.16658 | 36068 ft | 417 kts | 338° |
| 2026-05-06 00:26 | 39.74105 | 30.13763 | 36070 ft | 419 kts | 338° |
| 2026-05-06 00:26 | 39.79486 | 30.10856 | 36054 ft | 419 kts | 338° |
| 2026-05-06 00:27 | 39.84886 | 30.07935 | 36069 ft | 422 kts | 338° |
| 2026-05-06 00:27 | 39.90311 | 30.04994 | 36078 ft | 422 kts | 338° |
| 2026-05-06 00:28 | 39.95694 | 30.02075 | 36075 ft | 423 kts | 338° |
| 2026-05-06 00:28 | 40.01134 | 29.99138 | 36072 ft | 423 kts | 338° |
| 2026-05-06 00:29 | 40.06570 | 29.96197 | 36082 ft | 423 kts | 338° |
| 2026-05-06 00:29 | 40.12007 | 29.93252 | 36083 ft | 423 kts | 338° |
| 2026-05-06 00:30 | 40.17405 | 29.90322 | 36076 ft | 424 kts | 338° |
| 2026-05-06 00:30 | 40.22866 | 29.87353 | 36081 ft | 425 kts | 338° |
| 2026-05-06 00:31 | 40.28321 | 29.84382 | 36077 ft | 425 kts | 338° |
| 2026-05-06 00:31 | 40.33780 | 29.81403 | 36072 ft | 425 kts | 338° |
| 2026-05-06 00:32 | 40.39208 | 29.78437 | 36082 ft | 426 kts | 338° |
| 2026-05-06 00:32 | 40.44677 | 29.75442 | 36069 ft | 426 kts | 338° |
| 2026-05-06 00:33 | 40.50150 | 29.72440 | 36076 ft | 426 kts | 338° |
| 2026-05-06 00:33 | 40.55617 | 29.69435 | 36070 ft | 426 kts | 337° |
| 2026-05-06 00:34 | 40.61090 | 29.66423 | 36077 ft | 426 kts | 337° |
| 2026-05-06 00:34 | 40.66438 | 29.63186 | 36045 ft | 427 kts | 325° |
| 2026-05-06 00:35 | 40.71111 | 29.58351 | 36038 ft | 428 kts | 323° |
| 2026-05-06 00:35 | 40.75785 | 29.53483 | 36066 ft | 429 kts | 322° |
| 2026-05-06 00:36 | 40.80443 | 29.48574 | 36078 ft | 428 kts | 322° |
| 2026-05-06 00:36 | 40.85060 | 29.43693 | 36069 ft | 428 kts | 322° |
| 2026-05-06 00:37 | 40.89711 | 29.38769 | 36071 ft | 428 kts | 322° |
| 2026-05-06 00:37 | 40.94354 | 29.33841 | 36075 ft | 428 kts | 322° |
| 2026-05-06 00:38 | 40.98998 | 29.28905 | 36081 ft | 428 kts | 322° |
| 2026-05-06 00:38 | 41.03609 | 29.23995 | 36061 ft | 428 kts | 321° |
| 2026-05-06 00:39 | 41.08243 | 29.19050 | 36076 ft | 428 kts | 321° |
| 2026-05-06 00:39 | 41.12736 | 29.13903 | 36051 ft | 427 kts | 309° |
| 2026-05-06 00:40 | 41.16105 | 29.07397 | 36057 ft | 430 kts | 305° |
| 2026-05-06 00:40 | 41.18888 | 29.01927 | 36074 ft | 430 kts | 304° |
| 2026-05-06 00:41 | 41.22739 | 28.94240 | 36072 ft | 430 kts | 304° |
| 2026-05-06 00:41 | 41.26044 | 28.87614 | 36077 ft | 430 kts | 304° |
| 2026-05-06 00:42 | 41.28790 | 28.82096 | 36072 ft | 430 kts | 304° |
| 2026-05-06 00:42 | 41.32090 | 28.75452 | 36074 ft | 430 kts | 304° |
| 2026-05-06 00:43 | 41.35914 | 28.67736 | 36071 ft | 429 kts | 304° |
| 2026-05-06 00:43 | 41.38644 | 28.62215 | 36075 ft | 429 kts | 304° |
| 2026-05-06 00:44 | 41.41922 | 28.55572 | 36078 ft | 429 kts | 304° |
| 2026-05-06 00:44 | 41.45197 | 28.48922 | 36079 ft | 429 kts | 304° |
| 2026-05-06 00:45 | 41.49017 | 28.41196 | 36073 ft | 430 kts | 307° |
| 2026-05-06 00:45 | 41.52450 | 28.36452 | 36078 ft | 429 kts | 315° |
| 2026-05-06 00:46 | 41.56682 | 28.30830 | 36079 ft | 430 kts | 315° |
| 2026-05-06 00:46 | 41.60948 | 28.25202 | 36071 ft | 431 kts | 315° |
| 2026-05-06 00:47 | 41.65220 | 28.19561 | 36072 ft | 432 kts | 315° |
| 2026-05-06 00:47 | 41.69462 | 28.13949 | 36073 ft | 432 kts | 315° |
| 2026-05-06 00:48 | 41.73727 | 28.08296 | 36074 ft | 432 kts | 315° |
| 2026-05-06 00:48 | 41.77995 | 28.02628 | 36076 ft | 432 kts | 315° |
| 2026-05-06 00:49 | 41.82256 | 27.96957 | 36074 ft | 432 kts | 315° |
| 2026-05-06 00:49 | 41.86519 | 27.91272 | 36073 ft | 433 kts | 315° |
| 2026-05-06 00:50 | 41.90763 | 27.85602 | 36070 ft | 433 kts | 315° |
| 2026-05-06 00:50 | 41.95033 | 27.79887 | 36064 ft | 433 kts | 315° |
| 2026-05-06 00:51 | 41.98956 | 27.73763 | 36080 ft | 433 kts | 309° |
| 2026-05-06 00:51 | 42.02700 | 27.67391 | 36062 ft | 434 kts | 309° |
| 2026-05-06 00:52 | 42.06402 | 27.61054 | 36058 ft | 434 kts | 309° |
| 2026-05-06 00:52 | 42.10118 | 27.54677 | 36057 ft | 432 kts | 309° |
| 2026-05-06 00:53 | 42.13826 | 27.48301 | 36052 ft | 432 kts | 309° |
| 2026-05-06 00:53 | 42.17531 | 27.41917 | 36062 ft | 433 kts | 309° |
| 2026-05-06 00:54 | 42.21218 | 27.35551 | 36050 ft | 434 kts | 309° |
| 2026-05-06 00:54 | 42.24923 | 27.29138 | 36054 ft | 433 kts | 309° |
| 2026-05-06 00:55 | 42.28629 | 27.22711 | 36059 ft | 433 kts | 309° |
| 2026-05-06 00:55 | 42.32326 | 27.16286 | 36057 ft | 433 kts | 309° |
| 2026-05-06 00:56 | 42.36023 | 27.09848 | 36054 ft | 433 kts | 309° |
| 2026-05-06 00:56 | 42.39685 | 27.03455 | 36055 ft | 433 kts | 309° |
| 2026-05-06 00:57 | 42.43367 | 26.97015 | 36057 ft | 433 kts | 309° |
| 2026-05-06 00:57 | 42.47045 | 26.90568 | 36057 ft | 433 kts | 309° |
| 2026-05-06 00:58 | 42.50721 | 26.84111 | 36061 ft | 432 kts | 309° |
| 2026-05-06 00:58 | 42.54389 | 26.77653 | 36064 ft | 433 kts | 309° |
| 2026-05-06 00:59 | 42.58031 | 26.71226 | 36048 ft | 433 kts | 309° |
| 2026-05-06 00:59 | 42.61695 | 26.64747 | 36052 ft | 433 kts | 309° |
| 2026-05-06 01:00 | 42.65360 | 26.58254 | 36062 ft | 433 kts | 309° |
| 2026-05-06 01:00 | 42.69020 | 26.51755 | 36063 ft | 433 kts | 309° |
| 2026-05-06 01:01 | 42.72652 | 26.45290 | 36066 ft | 433 kts | 309° |
| 2026-05-06 01:01 | 42.76306 | 26.38773 | 36076 ft | 433 kts | 309° |
| 2026-05-06 01:02 | 42.79952 | 26.32254 | 36060 ft | 433 kts | 309° |
| 2026-05-06 01:02 | 42.83600 | 26.25720 | 36055 ft | 433 kts | 309° |
| 2026-05-06 01:03 | 42.87215 | 26.19229 | 36072 ft | 433 kts | 309° |
| 2026-05-06 01:03 | 42.90858 | 26.12675 | 36056 ft | 434 kts | 309° |
| 2026-05-06 01:04 | 42.94496 | 26.06114 | 36054 ft | 433 kts | 309° |
| 2026-05-06 01:04 | 42.98131 | 25.99544 | 36060 ft | 433 kts | 309° |
| 2026-05-06 01:05 | 43.01734 | 25.93018 | 36074 ft | 434 kts | 309° |
| 2026-05-06 01:05 | 43.05363 | 25.86430 | 36072 ft | 433 kts | 309° |
| 2026-05-06 01:06 | 43.08982 | 25.79846 | 36076 ft | 433 kts | 309° |
| 2026-05-06 01:06 | 43.12592 | 25.73263 | 36075 ft | 432 kts | 309° |
| 2026-05-06 01:07 | 43.16203 | 25.66664 | 36073 ft | 433 kts | 308° |
| 2026-05-06 01:07 | 43.19784 | 25.60106 | 36076 ft | 433 kts | 308° |
| 2026-05-06 01:08 | 43.23299 | 25.53654 | 36075 ft | 433 kts | 308° |
| 2026-05-06 01:08 | 43.26906 | 25.47017 | 36070 ft | 434 kts | 308° |
| 2026-05-06 01:09 | 43.30511 | 25.40371 | 36068 ft | 434 kts | 308° |
| 2026-05-06 01:09 | 43.34087 | 25.33762 | 36061 ft | 434 kts | 308° |
| 2026-05-06 01:10 | 43.37678 | 25.27112 | 36057 ft | 433 kts | 308° |
| 2026-05-06 01:10 | 43.41261 | 25.20460 | 36060 ft | 433 kts | 308° |
| 2026-05-06 01:11 | 43.44840 | 25.13801 | 36060 ft | 433 kts | 308° |
| 2026-05-06 01:11 | 43.48419 | 25.07128 | 36062 ft | 433 kts | 308° |
| 2026-05-06 01:12 | 43.51959 | 25.00511 | 36057 ft | 431 kts | 308° |
| 2026-05-06 01:12 | 43.55513 | 24.93853 | 36061 ft | 431 kts | 308° |
| 2026-05-06 01:13 | 43.59069 | 24.87179 | 36063 ft | 432 kts | 308° |
| 2026-05-06 01:13 | 43.62631 | 24.80480 | 36060 ft | 433 kts | 308° |
| 2026-05-06 01:14 | 43.67933 | 24.70483 | 36058 ft | 431 kts | 308° |
| 2026-05-06 01:14 | 43.71470 | 24.63794 | 36062 ft | 431 kts | 308° |
| 2026-05-06 01:15 | 43.75004 | 24.57102 | 36060 ft | 431 kts | 309° |
| 2026-05-06 01:15 | 43.78971 | 24.50925 | 36062 ft | 429 kts | 314° |
| 2026-05-06 01:16 | 43.82975 | 24.44908 | 36060 ft | 428 kts | 314° |
| 2026-05-06 01:16 | 43.87013 | 24.38842 | 36062 ft | 428 kts | 314° |
| 2026-05-06 01:17 | 43.91043 | 24.32777 | 36066 ft | 428 kts | 314° |
| 2026-05-06 01:17 | 43.95083 | 24.26685 | 36054 ft | 429 kts | 314° |
| 2026-05-06 01:18 | 43.99115 | 24.20590 | 36061 ft | 428 kts | 314° |
| 2026-05-06 01:18 | 44.03118 | 24.14528 | 36060 ft | 428 kts | 314° |
| 2026-05-06 01:19 | 44.07141 | 24.08417 | 36062 ft | 428 kts | 314° |
| 2026-05-06 01:19 | 44.11161 | 24.02297 | 36038 ft | 428 kts | 314° |
| 2026-05-06 01:20 | 44.15170 | 23.96183 | 36055 ft | 427 kts | 314° |
| 2026-05-06 01:20 | 44.19139 | 23.90116 | 36058 ft | 427 kts | 314° |
| 2026-05-06 01:21 | 44.23134 | 23.83996 | 36056 ft | 427 kts | 314° |
| 2026-05-06 01:21 | 44.27122 | 23.77874 | 36056 ft | 427 kts | 314° |
| 2026-05-06 01:22 | 44.31108 | 23.71744 | 36068 ft | 426 kts | 314° |
| 2026-05-06 01:22 | 44.35060 | 23.65653 | 36072 ft | 426 kts | 314° |
| 2026-05-06 01:23 | 44.39034 | 23.59517 | 36064 ft | 426 kts | 314° |
| 2026-05-06 01:23 | 44.43006 | 23.53369 | 36063 ft | 426 kts | 314° |
| 2026-05-06 01:24 | 44.46968 | 23.47222 | 36057 ft | 425 kts | 314° |
| 2026-05-06 01:24 | 44.50898 | 23.41107 | 36047 ft | 425 kts | 314° |
| 2026-05-06 01:25 | 44.54856 | 23.34937 | 36049 ft | 426 kts | 314° |
| 2026-05-06 01:25 | 44.58817 | 23.28747 | 36056 ft | 426 kts | 314° |
| 2026-05-06 01:26 | 44.62774 | 23.22549 | 36037 ft | 426 kts | 313° |
| 2026-05-06 01:26 | 44.66704 | 23.16381 | 36052 ft | 427 kts | 313° |
| 2026-05-06 01:27 | 44.70656 | 23.10165 | 36048 ft | 426 kts | 313° |
| 2026-05-06 01:27 | 44.74604 | 23.03941 | 36060 ft | 426 kts | 313° |
| 2026-05-06 01:28 | 44.78547 | 22.97711 | 36057 ft | 426 kts | 313° |
| 2026-05-06 01:28 | 44.82489 | 22.91469 | 36055 ft | 426 kts | 313° |
| 2026-05-06 01:29 | 44.86422 | 22.85202 | 36060 ft | 428 kts | 310° |
| 2026-05-06 01:29 | 44.90018 | 22.78559 | 36056 ft | 429 kts | 309° |
| 2026-05-06 01:30 | 44.93661 | 22.71901 | 36058 ft | 429 kts | 309° |
| 2026-05-06 01:30 | 44.97312 | 22.65238 | 36062 ft | 429 kts | 309° |
| 2026-05-06 01:31 | 45.00932 | 22.58616 | 36062 ft | 429 kts | 309° |
| 2026-05-06 01:31 | 45.04575 | 22.51938 | 36048 ft | 428 kts | 309° |
| 2026-05-06 01:32 | 45.08211 | 22.45257 | 36069 ft | 430 kts | 309° |
| 2026-05-06 01:32 | 45.11847 | 22.38561 | 36055 ft | 428 kts | 309° |
| 2026-05-06 01:33 | 45.15474 | 22.31867 | 36060 ft | 428 kts | 309° |
| 2026-05-06 01:33 | 45.19077 | 22.25199 | 36061 ft | 429 kts | 309° |
| 2026-05-06 01:34 | 45.22704 | 22.18472 | 36056 ft | 429 kts | 309° |
| 2026-05-06 01:34 | 45.26328 | 22.11733 | 36046 ft | 429 kts | 308° |
| 2026-05-06 01:35 | 45.29941 | 22.05002 | 36051 ft | 428 kts | 308° |
| 2026-05-06 01:35 | 45.33523 | 21.98310 | 36058 ft | 428 kts | 308° |
| 2026-05-06 01:36 | 45.37128 | 21.91561 | 36055 ft | 428 kts | 308° |
| 2026-05-06 01:36 | 45.40725 | 21.84809 | 36057 ft | 428 kts | 308° |
| 2026-05-06 01:37 | 45.44314 | 21.78056 | 36051 ft | 427 kts | 308° |
| 2026-05-06 01:37 | 45.47868 | 21.71356 | 36055 ft | 427 kts | 308° |
| 2026-05-06 01:38 | 45.51448 | 21.64589 | 36055 ft | 428 kts | 308° |
| 2026-05-06 01:38 | 45.55028 | 21.57805 | 36056 ft | 428 kts | 308° |
| 2026-05-06 01:39 | 45.58606 | 21.51009 | 36051 ft | 428 kts | 308° |
| 2026-05-06 01:39 | 45.62178 | 21.44208 | 36057 ft | 428 kts | 308° |
| 2026-05-06 01:40 | 45.65718 | 21.37451 | 36059 ft | 428 kts | 308° |
| 2026-05-06 01:40 | 45.69280 | 21.30638 | 36057 ft | 428 kts | 307° |
| 2026-05-06 01:41 | 45.72839 | 21.23812 | 36039 ft | 428 kts | 307° |
| 2026-05-06 01:41 | 45.76403 | 21.16962 | 36050 ft | 429 kts | 307° |
| 2026-05-06 01:42 | 45.79941 | 21.10144 | 36049 ft | 429 kts | 307° |
| 2026-05-06 01:42 | 45.83500 | 21.03270 | 36056 ft | 429 kts | 307° |
| 2026-05-06 01:43 | 45.87052 | 20.96391 | 36050 ft | 429 kts | 307° |
| 2026-05-06 01:43 | 45.90607 | 20.89491 | 36046 ft | 430 kts | 307° |
| 2026-05-06 01:44 | 45.94140 | 20.82615 | 36047 ft | 431 kts | 307° |
| 2026-05-06 01:44 | 45.97692 | 20.75687 | 36048 ft | 431 kts | 307° |
| 2026-05-06 01:45 | 46.01241 | 20.68747 | 36045 ft | 431 kts | 307° |
| 2026-05-06 01:45 | 46.04786 | 20.61800 | 36039 ft | 431 kts | 306° |
| 2026-05-06 01:46 | 46.08320 | 20.54861 | 36041 ft | 433 kts | 306° |
| 2026-05-06 01:46 | 46.11878 | 20.47858 | 36039 ft | 433 kts | 306° |
| 2026-05-06 01:47 | 46.15434 | 20.40861 | 36039 ft | 433 kts | 308° |
| 2026-05-06 01:47 | 46.19114 | 20.34063 | 36038 ft | 432 kts | 308° |
| 2026-05-06 01:48 | 46.22807 | 20.27199 | 36036 ft | 434 kts | 307° |
| 2026-05-06 01:48 | 46.26502 | 20.20311 | 36031 ft | 434 kts | 307° |
| 2026-05-06 01:49 | 46.30192 | 20.13414 | 36031 ft | 433 kts | 307° |